Time;durP1;ratioP1;P1;durP2;ratioP2;P2;SDS_P1;SDS_P2;PMS_P1;PMS_P2;Temp;Humidity;BMP_temperature;BMP_pressure;BME280_temperature;BME280_humidity;BME280_pressure;Samples;Min_cycle;Max_cycle;Signal;HPM_P1;HPM_P2
2021/05/24 00:00:21;;;;;;;18.43;15.93;;;;;21.60;100147.00;;;;2046396;29;20321;-52
2021/05/24 00:01:22;;;;;;;17.95;16.05;;;;;21.60;100143.00;;;;2054084;28;20731;-49
2021/05/24 00:02:22;;;;;;;17.53;15.73;;;;;21.30;100151.00;;;;2054020;28;20217;-51
2021/05/24 00:03:22;;;;;;;18.50;15.80;;;;;21.60;100145.00;;;;2052137;28;20217;-48
2021/05/24 00:04:23;;;;;;;18.50;16.40;;;;;21.60;100144.00;;;;2054261;28;20996;-47
2021/05/24 00:05:24;;;;;;;17.10;15.30;;;;;21.50;100137.00;;;;2054135;28;20244;-49
2021/05/24 00:06:25;;;;;;;17.75;15.85;;;;;21.60;100132.00;;;;2054470;28;20223;-50
2021/05/24 00:07:25;;;;;;;17.37;15.47;;;;;21.60;100136.00;;;;2054058;28;20217;-51
2021/05/24 00:08:26;;;;;;;17.13;14.03;;;;;21.60;100132.00;;;;2051782;28;20696;-51
2021/05/24 00:09:26;;;;;;;16.47;14.17;;;;;21.50;100129.00;;;;2055021;28;20895;-52
2021/05/24 00:10:28;;;;;;;15.30;13.60;;;;;21.50;100133.00;;;;2054953;28;20593;-51
2021/05/24 00:11:28;;;;;;;15.75;13.23;;;;;21.50;100140.00;;;;2047420;28;21116;-52
2021/05/24 00:12:29;;;;;;;14.90;13.30;;;;;21.50;100140.00;;;;2050440;28;20214;-51
2021/05/24 00:13:29;;;;;;;15.03;13.53;;;;;21.50;100129.00;;;;2049585;28;20216;-48
2021/05/24 00:14:31;;;;;;;16.03;13.63;;;;;21.50;100132.00;;;;2050546;28;20278;-50
2021/05/24 00:15:51;;;;;;;15.98;13.35;;;;;21.50;100130.00;;;;2054815;28;20233;-55
2021/05/24 00:16:52;;;;;;;14.68;12.80;;;;;21.50;100135.00;;;;2054965;28;20224;-49
2021/05/24 00:17:52;;;;;;;17.07;14.07;;;;;21.50;100131.00;;;;2045503;28;20225;-50
2021/05/24 00:18:53;;;;;;;14.80;13.30;;;;;21.50;100127.00;;;;2054179;28;20255;-50
2021/05/24 00:19:54;;;;;;;14.20;12.70;;;;;21.50;100123.00;;;;2054364;28;20298;-51
2021/05/24 00:20:59;;;;;;;14.40;13.00;;;;;21.50;100133.00;;;;2046228;28;20540;-51
2021/05/24 00:21:59;;;;;;;12.43;11.20;;;;;21.50;100127.00;;;;2046954;28;20216;-50
2021/05/24 00:23:00;;;;;;;13.33;11.83;;;;;21.50;100119.00;;;;2054932;28;21310;-50
2021/05/24 00:24:00;;;;;;;13.43;11.67;;;;;21.50;100125.00;;;;2054930;28;20554;-51
2021/05/24 00:25:00;;;;;;;13.80;12.30;;;;;21.50;100130.00;;;;2045776;29;20784;-51
2021/05/24 00:26:02;;;;;;;13.03;11.43;;;;;21.50;100124.00;;;;2046320;29;20218;-51
2021/05/24 00:27:02;;;;;;;12.95;11.48;;;;;21.50;100120.00;;;;2054645;28;20216;-50
2021/05/24 00:28:03;;;;;;;13.07;11.77;;;;;21.50;100120.00;;;;2054811;28;20799;-50
2021/05/24 00:29:03;;;;;;;12.77;11.47;;;;;21.50;100118.00;;;;2054692;28;20216;-51
2021/05/24 00:30:04;;;;;;;12.97;11.70;;;;;21.40;100101.00;;;;2054520;28;20242;-55
2021/05/24 00:31:05;;;;;;;12.60;11.20;;;;;21.50;100094.00;;;;2054006;28;20212;-52
2021/05/24 00:32:05;;;;;;;13.07;11.47;;;;;21.50;100113.00;;;;2054718;28;20875;-53
2021/05/24 00:33:06;;;;;;;12.20;10.90;;;;;21.50;100102.00;;;;2054150;28;20617;-49
2021/05/24 00:34:06;;;;;;;13.40;11.27;;;;;21.50;100111.00;;;;2054340;28;20213;-51
2021/05/24 00:35:07;;;;;;;11.70;10.50;;;;;21.50;100107.00;;;;2053858;28;20280;-53
2021/05/24 00:36:07;;;;;;;11.40;10.20;;;;;21.50;100108.00;;;;2054333;28;20224;-52
2021/05/24 00:37:08;;;;;;;12.57;11.10;;;;;21.50;100092.00;;;;2054742;28;20454;-48
2021/05/24 00:38:08;;;;;;;12.73;11.43;;;;;21.50;100099.00;;;;2045508;29;20267;-50
2021/05/24 00:39:08;;;;;;;11.17;9.67;;;;;21.40;100095.00;;;;2043404;29;20217;-51
2021/05/24 00:40:09;;;;;;;11.23;9.60;;;;;21.50;100088.00;;;;2054940;28;20217;-50
2021/05/24 00:41:09;;;;;;;11.70;10.03;;;;;21.40;100090.00;;;;2051260;28;20694;-51
2021/05/24 00:42:10;;;;;;;10.63;9.53;;;;;21.40;100093.00;;;;2049150;28;20686;-49
2021/05/24 00:43:10;;;;;;;11.20;10.00;;;;;21.40;100083.00;;;;2048862;28;20211;-51
2021/05/24 00:44:11;;;;;;;11.03;9.80;;;;;21.40;100090.00;;;;2046776;28;20745;-51
2021/05/24 00:45:11;;;;;;;10.63;9.33;;;;;21.40;100076.00;;;;2046051;28;20221;-50
2021/05/24 00:46:12;;;;;;;10.40;8.97;;;;;21.40;100079.00;;;;2046870;28;20224;-50
2021/05/24 00:47:12;;;;;;;10.53;9.33;;;;;21.40;100082.00;;;;2046397;28;20276;-49
2021/05/24 00:48:12;;;;;;;10.77;9.27;;;;;21.40;100077.00;;;;2045452;28;20229;-51
2021/05/24 00:49:13;;;;;;;12.33;9.23;;;;;21.40;100070.00;;;;2046341;28;20311;-48
2021/05/24 00:50:13;;;;;;;8.87;7.97;;;;;21.40;100069.00;;;;2046729;28;20215;-50
2021/05/24 00:51:13;;;;;;;10.37;9.27;;;;;21.40;100077.00;;;;2045769;28;20619;-50
2021/05/24 00:52:14;;;;;;;10.20;9.17;;;;;21.40;100073.00;;;;2046556;28;20752;-50
2021/05/24 00:53:14;;;;;;;9.50;8.60;;;;;21.40;100070.00;;;;2046739;28;20299;-49
2021/05/24 00:54:15;;;;;;;9.90;8.30;;;;;21.40;100067.00;;;;2046787;28;20340;-48
2021/05/24 00:55:15;;;;;;;9.93;8.90;;;;;21.40;100079.00;;;;2046510;28;20220;-50
2021/05/24 00:56:15;;;;;;;9.67;8.33;;;;;21.40;100070.00;;;;2046728;28;20218;-50
2021/05/24 00:57:16;;;;;;;8.90;7.70;;;;;21.40;100076.00;;;;2046443;28;20276;-52
2021/05/24 00:58:16;;;;;;;9.83;8.37;;;;;21.40;100079.00;;;;2034987;29;20209;-52
2021/05/24 00:59:16;;;;;;;8.47;7.57;;;;;21.40;100066.00;;;;2038023;29;20210;-48
2021/05/24 01:00:27;;;;;;;9.03;7.97;;;;;21.40;100061.00;;;;2046682;28;20690;-50
2021/05/24 01:01:29;;;;;;;9.00;8.05;;;;;21.40;100067.00;;;;2045603;28;20212;-52
2021/05/24 01:02:29;;;;;;;8.95;7.70;;;;;21.40;100066.00;;;;2046576;28;20559;-51
2021/05/24 01:03:29;;;;;;;10.93;8.43;;;;;21.40;100058.00;;;;2046186;28;20272;-51
2021/05/24 01:04:30;;;;;;;9.47;7.90;;;;;21.30;100073.00;;;;2046691;28;20565;-51
2021/05/24 01:05:30;;;;;;;12.17;7.73;;;;;21.40;100066.00;;;;2037873;29;20218;-52
2021/05/24 01:06:31;;;;;;;9.20;8.27;;;;;21.30;100062.00;;;;2038187;29;20232;-50
2021/05/24 01:07:31;;;;;;;9.13;8.10;;;;;21.30;100062.00;;;;2046431;28;20328;-52
2021/05/24 01:08:31;;;;;;;8.47;7.67;;;;;21.30;100054.00;;;;2037534;28;20228;-52
2021/05/24 01:09:32;;;;;;;8.53;7.73;;;;;21.30;100051.00;;;;2045717;28;20230;-51
2021/05/24 01:10:34;;;;;;;8.10;7.30;;;;;21.30;100051.00;;;;2046855;28;20763;-52
2021/05/24 01:11:35;;;;;;;8.05;7.25;;;;;21.30;100049.00;;;;2046272;28;20224;-50
2021/05/24 01:12:35;;;;;;;7.60;6.90;;;;;21.30;100054.00;;;;2037250;28;20893;-51
2021/05/24 01:13:35;;;;;;;8.57;6.80;;;;;21.30;100049.00;;;;2046236;28;20268;-52
2021/05/24 01:14:36;;;;;;;8.03;7.20;;;;;21.30;100046.00;;;;2046381;28;20765;-51
2021/05/24 01:15:36;;;;;;;8.27;7.40;;;;;21.40;100043.00;;;;2053695;28;20216;-51
2021/05/24 01:16:37;;;;;;;8.23;7.00;;;;;21.30;100043.00;;;;2053580;28;20282;-51
2021/05/24 01:17:37;;;;;;;7.17;6.47;;;;;21.30;100040.00;;;;2044387;29;20674;-49
2021/05/24 01:18:37;;;;;;;7.60;6.80;;;;;21.30;100045.00;;;;2045705;28;20217;-51
2021/05/24 01:19:46;;;;;;;6.77;6.17;;;;;21.30;100046.00;;;;2053853;28;20291;-51
2021/05/24 01:20:47;;;;;;;6.60;6.00;;;;;21.30;100046.00;;;;2053988;28;20219;-48
2021/05/24 01:21:47;;;;;;;6.83;6.23;;;;;21.30;100042.00;;;;2045176;29;20212;-49
2021/05/24 01:24:03;;;;;;;6.53;5.93;;;;;21.30;100031.00;;;;2054708;28;20558;-50
2021/05/24 01:25:07;;;;;;;7.10;5.93;;;;;21.30;100028.00;;;;2053140;28;20231;-50
2021/05/24 01:26:07;;;;;;;7.05;6.00;;;;;21.30;100033.00;;;;2053498;28;20217;-50
2021/05/24 01:27:08;;;;;;;7.63;6.60;;;;;21.30;100029.00;;;;2053612;28;20221;-51
2021/05/24 01:28:09;;;;;;;6.50;5.90;;;;;21.30;100036.00;;;;2053708;28;20215;-52
2021/05/24 01:29:09;;;;;;;7.10;5.75;;;;;21.30;100024.00;;;;2053996;28;20207;-48
2021/05/24 01:30:10;;;;;;;6.17;5.57;;;;;21.30;100015.00;;;;2053930;28;20259;-51
2021/05/24 01:31:11;;;;;;;6.20;5.63;;;;;21.30;100021.00;;;;2053234;28;20219;-51
2021/05/24 01:32:11;;;;;;;7.00;6.30;;;;;21.30;100022.00;;;;2053816;28;20310;-48
2021/05/24 01:33:12;;;;;;;6.03;5.43;;;;;21.30;100020.00;;;;2053555;28;20230;-50
2021/05/24 01:34:12;;;;;;;5.80;5.30;;;;;21.30;100019.00;;;;2053552;28;20219;-48
2021/05/24 01:35:12;;;;;;;7.60;6.10;;;;;21.30;100027.00;;;;2053961;28;20215;-47
2021/05/24 01:36:13;;;;;;;5.60;5.00;;;;;21.30;100031.00;;;;2046009;29;20220;-50
2021/05/24 01:37:13;;;;;;;5.80;5.20;;;;;21.30;100016.00;;;;2045550;29;20321;-50
2021/05/24 01:38:13;;;;;;;6.03;5.43;;;;;21.30;100019.00;;;;2054400;28;20219;-48
2021/05/24 01:39:14;;;;;;;5.90;5.40;;;;;21.30;100027.00;;;;2054367;28;20247;-50
2021/05/24 01:40:15;;;;;;;6.67;5.70;;;;;21.30;100020.00;;;;2054495;28;20221;-52
2021/05/24 01:41:15;;;;;;;5.23;4.73;;;;;21.30;100020.00;;;;2049130;28;20243;-52
2021/05/24 01:42:15;;;;;;;5.47;4.97;;;;;21.30;100025.00;;;;2047533;28;20463;-52
2021/05/24 01:43:16;;;;;;;6.00;5.40;;;;;21.30;100014.00;;;;2052368;28;20247;-48
2021/05/24 01:44:31;;;;;;;5.60;4.80;;;;;21.30;100015.00;;;;2046474;28;20813;-50
2021/05/24 01:45:32;;;;;;;5.80;4.90;;;;;21.30;100024.00;;;;2037757;29;20324;-49
2021/05/24 01:46:32;;;;;;;5.23;4.73;;;;;21.30;100008.00;;;;2038252;29;20240;-50
2021/05/24 01:47:32;;;;;;;6.27;4.50;;;;;21.30;100020.00;;;;2046434;28;20229;-51
2021/05/24 01:48:33;;;;;;;5.00;4.50;;;;;21.30;100015.00;;;;2047334;28;20224;-50
2021/05/24 01:49:35;;;;;;;6.03;5.40;;;;;21.30;100018.00;;;;2054386;28;20278;-51
2021/05/24 01:50:35;;;;;;;5.93;5.15;;;;;21.30;100018.00;;;;2053994;28;20243;-51
2021/05/24 01:51:36;;;;;;;5.03;4.57;;;;;21.20;100025.00;;;;2050948;28;20247;-51
2021/05/24 01:52:36;;;;;;;5.33;4.83;;;;;21.20;100024.00;;;;2046322;28;20455;-49
2021/05/24 01:53:37;;;;;;;5.00;4.50;;;;;21.20;100015.00;;;;2046499;28;20224;-52
2021/05/24 01:54:37;;;;;;;4.63;4.23;;;;;21.20;100011.00;;;;2046189;28;20213;-51
2021/05/24 01:55:37;;;;;;;5.53;4.97;;;;;21.20;100011.00;;;;2046305;28;20307;-52
2021/05/24 01:56:38;;;;;;;5.00;4.50;;;;;21.20;100016.00;;;;2046237;28;20221;-50
2021/05/24 01:57:38;;;;;;;4.60;4.20;;;;;21.20;100016.00;;;;2046015;28;20710;-49
2021/05/24 01:58:39;;;;;;;4.37;3.97;;;;;21.20;100011.00;;;;2046502;28;20574;-51
2021/05/24 01:59:39;;;;;;;5.07;4.57;;;;;21.20;100012.00;;;;2044324;28;20231;-51
2021/05/24 02:00:40;;;;;;;4.30;3.90;;;;;21.20;100013.00;;;;2046321;28;20328;-50
2021/05/24 02:01:40;;;;;;;4.07;3.67;;;;;21.20;100013.00;;;;2045720;28;20248;-50
2021/05/24 02:02:41;;;;;;;4.03;3.60;;;;;21.20;100006.00;;;;2046495;28;20814;-49
2021/05/24 02:03:44;;;;;;;4.95;4.38;;;;;21.20;100007.00;;;;2046210;28;20281;-50
2021/05/24 02:04:44;;;;;;;6.22;4.47;;;;;21.20;100015.00;;;;2046310;28;20687;-49
2021/05/24 02:05:45;;;;;;;4.87;4.07;;;;;21.20;100006.00;;;;2045978;28;20212;-51
2021/05/24 02:06:45;;;;;;;4.83;4.03;;;;;21.20;100012.00;;;;2046439;28;20283;-51
2021/05/24 02:07:46;;;;;;;4.10;3.70;;;;;21.20;100006.00;;;;2046282;28;20228;-52
2021/05/24 02:08:46;;;;;;;3.50;3.20;;;;;21.20;100003.00;;;;2043411;28;20741;-48
2021/05/24 02:09:47;;;;;;;5.03;3.97;;;;;21.20;100006.00;;;;2046228;28;20862;-50
2021/05/24 02:10:47;;;;;;;4.20;3.80;;;;;21.20;100003.00;;;;2049698;28;20208;-51
2021/05/24 02:11:47;;;;;;;4.30;3.63;;;;;21.20;99999.00;;;;2048524;28;20264;-51
2021/05/24 02:12:48;;;;;;;3.60;3.30;;;;;21.20;100002.00;;;;2049145;28;20970;-51
2021/05/24 02:13:49;;;;;;;4.07;3.67;;;;;21.20;100004.00;;;;2047447;28;20220;-50
2021/05/24 02:14:52;;;;;;;4.40;3.43;;;;;21.20;100001.00;;;;2046373;28;20225;-50
2021/05/24 02:15:52;;;;;;;4.50;4.07;;;;;21.20;100002.00;;;;2045581;29;20311;-51
2021/05/24 02:16:53;;;;;;;4.20;3.80;;;;;21.20;100002.00;;;;2045463;29;20225;-49
2021/05/24 02:17:53;;;;;;;3.60;3.30;;;;;21.20;99991.00;;;;2053953;28;20220;-48
2021/05/24 02:18:53;;;;;;;3.73;3.43;;;;;21.20;99999.00;;;;2054163;28;20279;-51
2021/05/24 02:19:54;;;;;;;3.80;3.50;;;;;21.20;100000.00;;;;2054032;28;20228;-51
2021/05/24 02:20:54;;;;;;;3.80;3.40;;;;;21.20;99994.00;;;;2053907;28;20216;-56
2021/05/24 02:21:55;;;;;;;3.70;3.40;;;;;21.20;99998.00;;;;2053598;28;20363;-55
2021/05/24 02:22:56;;;;;;;4.60;3.70;;;;;21.20;99990.00;;;;2053193;28;20758;-50
2021/05/24 02:23:56;;;;;;;3.55;3.25;;;;;21.20;100002.00;;;;2054043;28;20250;-53
2021/05/24 02:24:56;;;;;;;3.70;3.30;;;;;21.10;99987.00;;;;2054058;28;20196;-53
2021/05/24 02:25:57;;;;;;;4.00;3.60;;;;;21.10;99994.00;;;;2054134;28;20204;-53
2021/05/24 02:26:57;;;;;;;4.03;3.20;;;;;21.20;99988.00;;;;2054184;28;20218;-48
2021/05/24 02:27:58;;;;;;;4.00;3.60;;;;;21.10;99980.00;;;;2052513;28;20302;-52
2021/05/24 02:28:58;;;;;;;3.40;3.00;;;;;21.20;99988.00;;;;2054209;28;20291;-51
2021/05/24 02:29:58;;;;;;;3.43;3.13;;;;;21.10;99974.00;;;;2054104;28;20277;-50
2021/05/24 02:30:59;;;;;;;4.17;3.10;;;;;21.20;99978.00;;;;2054680;28;20227;-48
2021/05/24 02:31:59;;;;;;;4.53;3.13;;;;;21.20;99992.00;;;;2055673;28;20211;-51
2021/05/24 02:32:59;;;;;;;3.30;3.00;;;;;21.10;99980.00;;;;2054913;28;20246;-49
2021/05/24 02:34:01;;;;;;;3.20;2.90;;;;;21.10;99978.00;;;;2055143;28;20211;-48
2021/05/24 02:35:02;;;;;;;3.40;3.10;;;;;21.10;99980.00;;;;2055036;28;20601;-51
2021/05/24 02:36:02;;;;;;;3.90;2.92;;;;;21.10;99975.00;;;;2055074;28;20314;-49
2021/05/24 02:37:03;;;;;;;2.77;2.57;;;;;21.10;99982.00;;;;2055619;28;20211;-51
2021/05/24 02:38:03;;;;;;;5.57;3.77;;;;;21.10;99981.00;;;;2055424;28;20309;-51
2021/05/24 02:39:06;;;;;;;3.27;2.97;;;;;21.10;99975.00;;;;2055075;28;20224;-50
2021/05/24 02:40:07;;;;;;;3.35;3.00;;;;;21.10;99968.00;;;;2046932;29;20721;-52
2021/05/24 02:41:08;;;;;;;3.58;3.00;;;;;21.10;99975.00;;;;2042498;29;20736;-51
2021/05/24 02:42:08;;;;;;;3.20;2.90;;;;;21.10;99969.00;;;;2051624;28;20196;-51
2021/05/24 02:43:08;;;;;;;3.10;2.80;;;;;21.10;99974.00;;;;2048913;28;20225;-50
2021/05/24 02:44:09;;;;;;;3.60;3.20;;;;;21.10;99966.00;;;;2047640;28;20727;-51
2021/05/24 02:45:10;;;;;;;3.10;2.80;;;;;21.10;99964.00;;;;2047597;28;20205;-51
2021/05/24 02:46:11;;;;;;;3.00;2.70;;;;;21.10;99974.00;;;;2047272;28;20213;-50
2021/05/24 02:47:11;;;;;;;3.57;3.00;;;;;21.10;99971.00;;;;2047519;28;20217;-50
2021/05/24 02:48:11;;;;;;;2.83;2.63;;;;;21.10;99966.00;;;;2047595;28;20729;-50
2021/05/24 02:49:12;;;;;;;3.97;3.10;;;;;21.10;99969.00;;;;2047408;28;20618;-48
2021/05/24 02:50:17;;;;;;;2.83;2.40;;;;;21.10;99961.00;;;;2047542;28;20213;-48
2021/05/24 02:51:17;;;;;;;2.85;2.42;;;;;21.10;99965.00;;;;2047025;28;20228;-52
2021/05/24 02:52:18;;;;;;;2.93;2.60;;;;;21.10;99957.00;;;;2047503;28;20974;-52
2021/05/24 02:53:18;;;;;;;2.33;2.13;;;;;21.10;99967.00;;;;2047720;28;20291;-49
2021/05/24 02:54:18;;;;;;;3.47;3.17;;;;;21.10;99965.00;;;;2054811;28;20212;-51
2021/05/24 02:55:19;;;;;;;3.50;2.90;;;;;21.10;99962.00;;;;2055230;28;20204;-51
2021/05/24 02:56:19;;;;;;;3.97;2.93;;;;;21.10;99961.00;;;;2055323;28;20307;-52
2021/05/24 02:57:19;;;;;;;3.50;2.43;;;;;21.10;99958.00;;;;2055656;28;20227;-52
2021/05/24 02:58:20;;;;;;;2.83;2.50;;;;;21.10;99968.00;;;;2054633;28;20267;-50
2021/05/24 02:59:20;;;;;;;2.77;2.30;;;;;21.10;99953.00;;;;2055007;28;20215;-48
2021/05/24 03:00:22;;;;;;;4.40;2.83;;;;;21.10;99957.00;;;;2046047;28;20246;-51
2021/05/24 03:01:25;;;;;;;3.03;2.50;;;;;21.10;99962.00;;;;2045353;28;20662;-48
2021/05/24 03:02:27;;;;;;;2.30;2.10;;;;;21.10;99965.00;;;;2054757;28;20220;-52
2021/05/24 03:03:30;;;;;;;3.50;2.53;;;;;21.10;99956.00;;;;2054570;28;20239;-52
2021/05/24 03:04:31;;;;;;;2.80;2.42;;;;;21.10;99962.00;;;;2054347;28;20371;-50
2021/05/24 03:05:31;;;;;;;2.60;2.40;;;;;21.10;99952.00;;;;2054660;28;20232;-51
2021/05/24 03:06:33;;;;;;;2.60;2.10;;;;;20.80;99954.00;;;;2054921;28;20302;-52
2021/05/24 03:07:33;;;;;;;2.22;1.95;;;;;21.10;99960.00;;;;2055062;28;20224;-53
2021/05/24 03:08:33;;;;;;;3.10;2.60;;;;;21.10;99954.00;;;;2052743;28;20777;-53
2021/05/24 03:09:34;;;;;;;2.60;2.40;;;;;21.10;99956.00;;;;2055153;28;20566;-51
2021/05/24 03:10:34;;;;;;;2.63;2.30;;;;;21.00;99958.00;;;;2035846;29;20584;-49
2021/05/24 03:11:35;;;;;;;2.53;2.33;;;;;21.10;99963.00;;;;2035804;29;20217;-48
2021/05/24 03:12:35;;;;;;;2.20;2.00;;;;;21.10;99949.00;;;;2047855;28;20621;-47
2021/05/24 03:13:35;;;;;;;2.10;1.80;;;;;21.10;99947.00;;;;2045101;28;20227;-50
2021/05/24 03:14:36;;;;;;;3.40;2.47;;;;;21.10;99946.00;;;;2047446;28;20259;-51
2021/05/24 03:15:36;;;;;;;2.30;2.10;;;;;21.10;99943.00;;;;2046882;28;20264;-50
2021/05/24 03:16:38;;;;;;;2.50;2.30;;;;;21.10;99955.00;;;;2046836;29;20221;-51
2021/05/24 03:17:38;;;;;;;2.47;1.90;;;;;21.00;99954.00;;;;2047391;28;20280;-51
2021/05/24 03:18:39;;;;;;;2.70;2.37;;;;;21.00;99966.00;;;;2048874;28;20619;-51
2021/05/24 03:19:39;;;;;;;2.60;1.97;;;;;21.10;99942.00;;;;2049409;28;20225;-51
2021/05/24 03:20:39;;;;;;;2.17;1.97;;;;;21.10;99947.00;;;;2048143;28;20237;-52
2021/05/24 03:21:41;;;;;;;2.97;2.03;;;;;21.00;99949.00;;;;2046373;28;20228;-52
2021/05/24 03:22:41;;;;;;;2.30;1.80;;;;;21.00;99948.00;;;;2046706;28;20225;-48
2021/05/24 03:23:41;;;;;;;2.67;2.20;;;;;21.00;99943.00;;;;2045859;29;20220;-49
2021/05/24 03:24:42;;;;;;;2.33;1.73;;;;;21.00;99939.00;;;;2050141;28;20319;-49
2021/05/24 03:25:42;;;;;;;2.20;1.73;;;;;21.00;99945.00;;;;2047865;28;20231;-50
2021/05/24 03:26:43;;;;;;;2.37;2.07;;;;;21.10;99946.00;;;;2047302;28;20217;-51
2021/05/24 03:27:43;;;;;;;2.33;1.90;;;;;21.00;99945.00;;;;2047488;28;20247;-47
2021/05/24 03:28:45;;;;;;;2.87;2.40;;;;;21.00;99947.00;;;;2044327;28;20229;-51
2021/05/24 03:29:45;;;;;;;2.40;2.17;;;;;21.00;99946.00;;;;2047666;28;20236;-47
2021/05/24 03:30:45;;;;;;;2.80;1.73;;;;;21.00;99952.00;;;;2047455;28;20217;-51
2021/05/24 03:31:46;;;;;;;2.17;1.97;;;;;21.00;99948.00;;;;2046760;28;20698;-52
2021/05/24 03:32:46;;;;;;;2.07;1.80;;;;;21.00;99948.00;;;;2047585;28;20217;-51
2021/05/24 03:33:46;;;;;;;2.40;2.20;;;;;21.00;99951.00;;;;2042601;28;20291;-51
2021/05/24 03:34:47;;;;;;;2.40;1.90;;;;;21.00;99945.00;;;;2046420;28;20755;-52
2021/05/24 03:35:47;;;;;;;2.10;1.90;;;;;21.00;99946.00;;;;2046673;28;20625;-51
2021/05/24 03:36:47;;;;;;;2.03;1.83;;;;;21.00;99935.00;;;;2046842;28;20209;-50
2021/05/24 03:37:48;;;;;;;2.40;1.83;;;;;21.00;99939.00;;;;2047367;28;20213;-51
2021/05/24 03:38:48;;;;;;;1.70;1.60;;;;;21.00;99943.00;;;;2046958;28;20720;-51
2021/05/24 03:39:49;;;;;;;1.87;1.70;;;;;21.00;99936.00;;;;2045917;28;20617;-52
2021/05/24 03:40:49;;;;;;;1.90;1.60;;;;;21.00;99947.00;;;;2048560;28;20285;-52
2021/05/24 03:41:49;;;;;;;2.17;1.60;;;;;21.00;99937.00;;;;2054409;28;20291;-48
2021/05/24 03:42:50;;;;;;;2.23;1.90;;;;;21.00;99940.00;;;;2054455;28;20204;-50
2021/05/24 03:43:50;;;;;;;1.67;1.57;;;;;21.00;99936.00;;;;2055057;28;20235;-52
2021/05/24 03:44:51;;;;;;;2.00;1.70;;;;;21.00;99934.00;;;;2046608;29;20225;-51
2021/05/24 03:45:51;;;;;;;2.40;2.20;;;;;21.00;99930.00;;;;2046607;28;21311;-52
2021/05/24 03:46:52;;;;;;;1.83;1.50;;;;;21.00;99937.00;;;;2054981;28;20727;-51
2021/05/24 03:47:52;;;;;;;1.90;1.50;;;;;21.00;99942.00;;;;2055167;28;20709;-49
2021/05/24 03:48:53;;;;;;;1.57;1.23;;;;;21.00;99937.00;;;;2052550;28;20259;-50
2021/05/24 03:49:53;;;;;;;1.93;1.57;;;;;21.00;99942.00;;;;2054145;28;20222;-50
2021/05/24 03:50:53;;;;;;;1.60;1.40;;;;;21.00;99934.00;;;;2054274;28;20267;-51
2021/05/24 03:51:54;;;;;;;1.67;1.40;;;;;21.00;99933.00;;;;2053718;28;20223;-48
2021/05/24 03:52:54;;;;;;;2.30;1.50;;;;;21.00;99930.00;;;;2054849;28;20693;-51
2021/05/24 03:53:54;;;;;;;1.60;1.50;;;;;21.00;99923.00;;;;2054393;28;20216;-51
2021/05/24 03:54:55;;;;;;;1.40;1.30;;;;;21.00;99925.00;;;;2050232;28;20217;-52
2021/05/24 03:55:55;;;;;;;1.80;1.67;;;;;21.00;99924.00;;;;2049774;28;20219;-47
2021/05/24 03:56:55;;;;;;;1.93;1.60;;;;;21.00;99929.00;;;;2049050;28;20220;-50
2021/05/24 03:57:56;;;;;;;1.57;1.27;;;;;21.00;99926.00;;;;2046328;28;20224;-49
2021/05/24 03:58:56;;;;;;;1.73;1.50;;;;;21.00;99922.00;;;;2045660;28;20213;-51
2021/05/24 03:59:57;;;;;;;1.83;1.43;;;;;21.00;99925.00;;;;2046474;28;20311;-52
2021/05/24 04:00:57;;;;;;;2.20;1.60;;;;;21.00;99915.00;;;;2045081;28;20705;-52
2021/05/24 04:01:57;;;;;;;1.53;1.27;;;;;21.00;99926.00;;;;2045757;28;20214;-51
2021/05/24 04:03:00;;;;;;;1.83;1.40;;;;;21.00;99919.00;;;;2046399;28;20296;-51
2021/05/24 04:04:00;;;;;;;1.35;1.15;;;;;21.00;99923.00;;;;2044619;28;20303;-49
2021/05/24 04:05:08;;;;;;;1.60;1.23;;;;;21.00;99923.00;;;;2046243;28;20224;-51
2021/05/24 04:06:11;;;;;;;1.85;1.45;;;;;21.00;99931.00;;;;2046069;28;20308;-50
2021/05/24 04:07:13;;;;;;;2.45;1.42;;;;;21.00;99924.00;;;;2045976;28;20240;-48
2021/05/24 04:08:14;;;;;;;1.55;1.38;;;;;21.00;99930.00;;;;2046095;28;20240;-51
2021/05/24 04:09:15;;;;;;;1.52;1.10;;;;;21.00;99923.00;;;;2042599;29;20570;-54
2021/05/24 04:10:17;;;;;;;1.77;1.33;;;;;21.00;99915.00;;;;2046292;28;20296;-47
2021/05/24 04:11:17;;;;;;;1.92;1.50;;;;;21.00;99918.00;;;;2045343;28;20225;-49
2021/05/24 04:12:18;;;;;;;1.40;1.30;;;;;21.00;99919.00;;;;2046720;28;20760;-51
2021/05/24 04:13:18;;;;;;;1.30;1.20;;;;;21.00;99917.00;;;;2046289;28;20303;-50
2021/05/24 04:14:19;;;;;;;2.00;1.07;;;;;21.00;99911.00;;;;2036536;28;20578;-54
2021/05/24 04:15:19;;;;;;;1.60;1.50;;;;;21.00;99918.00;;;;2045954;28;20221;-52
2021/05/24 04:16:19;;;;;;;1.43;1.23;;;;;21.00;99925.00;;;;2046656;28;20696;-51
2021/05/24 04:17:22;;;;;;;1.27;0.90;;;;;21.00;99920.00;;;;2046828;28;20744;-52
2021/05/24 04:18:23;;;;;;;1.65;1.20;;;;;21.00;99914.00;;;;2046611;28;20216;-49
2021/05/24 04:19:23;;;;;;;1.30;1.20;;;;;21.00;99912.00;;;;2045956;28;20217;-51
2021/05/24 04:20:24;;;;;;;1.93;1.30;;;;;21.00;99916.00;;;;2046447;28;20860;-51
2021/05/24 04:21:24;;;;;;;1.30;1.20;;;;;21.00;99914.00;;;;2045479;28;20271;-48
2021/05/24 04:22:25;;;;;;;1.60;1.10;;;;;21.00;99915.00;;;;2046292;28;20300;-50
2021/05/24 04:23:25;;;;;;;1.47;1.33;;;;;21.00;99907.00;;;;2046652;28;20213;-52
2021/05/24 04:24:25;;;;;;;1.40;1.30;;;;;21.00;99911.00;;;;2046432;28;20204;-51
2021/05/24 04:25:26;;;;;;;2.37;1.57;;;;;21.00;99904.00;;;;2047122;28;20709;-52
2021/05/24 04:26:26;;;;;;;1.30;1.10;;;;;21.00;99901.00;;;;2048313;28;20630;-52
2021/05/24 04:27:26;;;;;;;1.60;1.43;;;;;21.00;99903.00;;;;2047629;28;20225;-51
2021/05/24 04:28:27;;;;;;;1.40;1.07;;;;;21.00;99888.00;;;;2045480;28;20221;-48
2021/05/24 04:29:27;;;;;;;1.33;0.90;;;;;21.00;99895.00;;;;2046130;28;20209;-48
2021/05/24 04:30:27;;;;;;;1.03;0.93;;;;;21.00;99901.00;;;;2046574;28;20296;-51
2021/05/24 04:31:28;;;;;;;1.47;1.27;;;;;21.00;99896.00;;;;2045398;28;20228;-52
2021/05/24 04:32:28;;;;;;;1.40;1.30;;;;;21.00;99895.00;;;;2046454;28;20224;-52
2021/05/24 04:33:28;;;;;;;1.10;0.90;;;;;21.00;99897.00;;;;2046133;28;20216;-49
2021/05/24 04:34:29;;;;;;;1.67;1.13;;;;;21.00;99896.00;;;;2045296;28;20213;-49
2021/05/24 04:35:29;;;;;;;1.30;1.20;;;;;20.90;99897.00;;;;2045880;28;20247;-47
2021/05/24 04:36:30;;;;;;;1.57;1.30;;;;;20.90;99910.00;;;;2046421;28;20247;-50
2021/05/24 04:37:30;;;;;;;1.93;1.40;;;;;20.90;99902.00;;;;2045574;28;20307;-51
2021/05/24 04:38:30;;;;;;;1.30;1.20;;;;;20.90;99900.00;;;;2041208;28;20228;-51
2021/05/24 04:39:31;;;;;;;1.50;1.10;;;;;20.90;99894.00;;;;2044784;28;20232;-52
2021/05/24 04:40:31;;;;;;;1.30;1.20;;;;;21.00;99891.00;;;;2046257;28;20267;-51
2021/05/24 04:41:31;;;;;;;1.50;1.17;;;;;21.00;99897.00;;;;2045668;28;20784;-49
2021/05/24 04:42:32;;;;;;;1.97;1.30;;;;;21.00;99895.00;;;;2046847;28;20704;-48
2021/05/24 04:43:34;;;;;;;1.10;0.97;;;;;21.00;99895.00;;;;2039324;28;20251;-49
2021/05/24 04:44:34;;;;;;;1.50;1.20;;;;;21.00;99892.00;;;;2046369;28;20221;-51
2021/05/24 04:45:35;;;;;;;1.20;1.00;;;;;21.00;99894.00;;;;2046144;28;20307;-51
2021/05/24 04:46:35;;;;;;;1.50;0.87;;;;;20.90;99895.00;;;;2046100;28;20242;-48
2021/05/24 04:47:35;;;;;;;1.00;0.90;;;;;21.00;99890.00;;;;2046147;28;20238;-48
2021/05/24 04:48:36;;;;;;;1.23;0.97;;;;;20.90;99897.00;;;;2045708;28;20235;-50
2021/05/24 04:49:36;;;;;;;1.10;0.90;;;;;20.90;99894.00;;;;2045707;28;20713;-51
2021/05/24 04:50:37;;;;;;;1.30;1.07;;;;;20.90;99886.00;;;;2045947;28;20231;-52
2021/05/24 04:51:37;;;;;;;1.40;0.90;;;;;20.90;99890.00;;;;2044834;28;20216;-51
2021/05/24 04:52:37;;;;;;;1.30;0.90;;;;;20.90;99895.00;;;;2046237;28;20300;-51
2021/05/24 04:53:38;;;;;;;1.57;1.10;;;;;20.90;99893.00;;;;2045536;28;20227;-49
2021/05/24 04:54:38;;;;;;;1.30;1.03;;;;;20.90;99886.00;;;;2048455;28;20693;-50
2021/05/24 04:55:38;;;;;;;1.27;0.90;;;;;20.90;99889.00;;;;2047390;28;20697;-51
2021/05/24 04:56:39;;;;;;;1.37;1.00;;;;;20.90;99899.00;;;;2046485;28;20641;-51
2021/05/24 04:57:39;;;;;;;1.00;0.80;;;;;20.90;99885.00;;;;2046084;28;20827;-51
2021/05/24 04:58:39;;;;;;;1.57;1.00;;;;;20.90;99887.00;;;;2045762;28;20256;-52
2021/05/24 04:59:40;;;;;;;1.30;0.90;;;;;20.90;99882.00;;;;2046180;28;20217;-49
2021/05/24 05:00:40;;;;;;;1.23;0.93;;;;;20.90;99882.00;;;;2046023;28;20510;-50
2021/05/24 05:01:41;;;;;;;1.27;1.10;;;;;20.90;99887.00;;;;2044797;28;20237;-51
2021/05/24 05:02:41;;;;;;;2.00;1.17;;;;;20.90;99887.00;;;;2045955;28;20235;-52